Aérodrome :
LOGIN :

S'inscrire | Disclaimer

   EN    FR    IT 

 










Légende :    VFR   VFR Marginal   IFR   IFR Intensif   IFR Très Intensif
Visi : 
Plafond : 
>= 8 km
>= 3000ft
5 à 8 km
1000 à 3000 ft
1500m à 5 km
500 à 1000 ft
800 à 1500m
200 à 500 ft
< 800m
< 200 ft
Symboles :   Orages  Brouillard  Fortes neiges  Fortes précipitations  Vent > 20 kt
SIGMETs :   Divers  Orages  Givrage  Turbulence  Onde Orograph.  Cendres Volcan.







- Altitude de l'aérodrome : -15 ft
- Code IATA : RTM


EHRD - Rotterdam Zestienhoven

DERNIER METAR :
  • 280955Z AUTO 21009KT 160V240 8000 BKN020 BKN024 OVC027 21/17 Q0995 NOSIG

METARs EXPIRÉS :
  • 280925Z AUTO 19009KT 150V230 6000 FEW015 SCT019 BKN025 21/17 Q0995 NOSIG
  • 280855Z AUTO 18010KT 140V240 5000 BR FEW016/// SCT026/// OVC030/// 21/18 Q0995 NOSIG
  • 280825Z AUTO 19008KT 130V230 5000 BR FEW010 SCT013 BKN016 20/18 Q0995 TEMPO BKN008
  • 280755Z AUTO 18007KT 150V210 5000 BR FEW007 SCT009 BKN011 20/18 Q0995 NOSIG
  • 280725Z AUTO 16006KT 130V190 5000 BR BKN007 OVC008 19/18 Q0995 NOSIG

TAF TAF EHRD
Valide du 28 à 06h jusqu'au 29 à 12h UTC


280439Z 2806/2912 11009KT 9999 BKN012
PROB30 2806/2810 7000 BKN008
PROB40
TEMPO 2808/2813 4000 SHRA BKN010 SCT020CB
BECMG 2809/2812 23010KT BKN018
BECMG 2820/2823 20007KT BKN012
PROB30 2900/2907 7000 BKN008
BECMG 2909/2912 25010KT
Pas de NOTAMs connus pour ce terrain.



MET'MAP, la Météo Aéronautique d'un coup d'oeil ! - Copyright ORBIFLY Décembre 2007 - Disclaimer

ORBIFLY MET'MAP TEAM :

Programmation & Développement : Alexandra Zaïnal
Conception & Développement : Baudouin d'Aumeries
Co-Programmation & Développement : Marc-Olivier Méhu
Soutien technique & logistique : Manuel Goepfert

Contact : metmap@orbifly.com




SOURCES & CREDITS :

   NOAA